createdAt,value
2023-01-18T00:00:36.961Z,925.6904907
2023-01-18T00:01:38.832Z,925.6842041
2023-01-18T00:03:10.786Z,925.5964966
2023-01-18T00:04:11.650Z,925.6154175
2023-01-18T00:05:12.583Z,925.5064087
2023-01-18T00:06:13.448Z,925.4556885
2023-01-18T00:07:14.358Z,925.4835815
2023-01-18T00:08:15.245Z,925.4823608
2023-01-18T00:09:16.138Z,925.4813843
2023-01-18T00:10:17.008Z,925.4816895
2023-01-18T00:11:17.938Z,925.4473267
2023-01-18T00:12:18.946Z,925.5990601
2023-01-18T00:13:20.298Z,925.4888306
2023-01-18T00:14:21.164Z,925.5431519
2023-01-18T00:15:21.986Z,925.4880981
2023-01-18T00:16:22.955Z,925.4562378
2023-01-18T00:17:23.806Z,925.4204712
2023-01-18T00:18:24.664Z,925.364502
2023-01-18T00:19:25.523Z,925.3190918
2023-01-18T00:20:26.322Z,925.2912598
2023-01-18T00:21:27.312Z,925.3074951
2023-01-18T00:22:28.343Z,925.3323975
2023-01-18T00:23:29.911Z,925.2480469
2023-01-18T00:24:30.997Z,925.2930298
2023-01-18T00:25:31.827Z,925.2996826
2023-01-18T00:26:32.723Z,925.3261108
2023-01-18T00:27:33.601Z,925.3279419
2023-01-18T00:28:34.473Z,925.3842163
2023-01-18T00:29:35.517Z,925.3203125
2023-01-18T00:30:36.239Z,925.3292236
2023-01-18T00:31:37.192Z,925.3317261
2023-01-18T00:32:38.580Z,925.3374023
2023-01-18T00:34:11.329Z,925.3185425
2023-01-18T00:35:12.321Z,925.2993774
2023-01-18T00:36:13.187Z,925.2762451
2023-01-18T00:37:14.026Z,925.3098145
2023-01-18T00:38:15.013Z,925.3372803
2023-01-18T00:39:15.968Z,925.3292847
2023-01-18T00:40:17.471Z,925.3813477
2023-01-18T00:41:18.258Z,925.427002
2023-01-18T00:42:19.118Z,925.4181519
2023-01-18T00:43:20.821Z,925.4359131
2023-01-18T00:44:21.826Z,925.4534912
2023-01-18T00:45:22.726Z,925.4659424
2023-01-18T00:46:23.630Z,925.4779663
2023-01-18T00:47:24.701Z,925.4740601
2023-01-18T00:48:25.605Z,925.4657593
2023-01-18T00:49:26.531Z,925.4634399
2023-01-18T00:50:27.425Z,925.4486084
2023-01-18T00:51:28.261Z,925.435791
2023-01-18T00:52:29.720Z,925.4177856
2023-01-18T00:53:31.359Z,925.4123535
2023-01-18T00:54:32.305Z,925.4110107
2023-01-18T00:55:33.274Z,925.4726563
2023-01-18T00:56:34.181Z,925.4744263
2023-01-18T00:57:35.811Z,925.5179443
2023-01-18T00:58:36.720Z,925.4980469
2023-01-18T00:59:37.636Z,925.4893799
2023-01-18T01:01:09.222Z,925.465332
2023-01-18T01:02:09.953Z,925.4420166
2023-01-18T01:03:11.192Z,925.4598999
2023-01-18T01:04:12.193Z,925.4710693
2023-01-18T01:05:13.741Z,925.5407715
2023-01-18T01:06:14.725Z,925.5247803
2023-01-18T01:07:15.523Z,925.5551758
2023-01-18T01:08:16.398Z,925.5736084
2023-01-18T01:09:17.295Z,925.5599365
2023-01-18T01:10:18.180Z,925.5487671
2023-01-18T01:11:19.100Z,925.5669556
2023-01-18T01:12:20.753Z,925.5784302
2023-01-18T01:13:21.586Z,925.5337524
2023-01-18T01:14:23.215Z,925.5806885
2023-01-18T01:15:24.071Z,925.6120605
2023-01-18T01:16:25.013Z,925.5976563
2023-01-18T01:17:25.809Z,925.631897
2023-01-18T01:18:26.631Z,925.6303101
2023-01-18T01:19:27.747Z,925.6222534
2023-01-18T01:20:28.672Z,925.6584473
2023-01-18T01:21:29.649Z,925.6408081
2023-01-18T01:22:30.668Z,925.6599731
2023-01-18T01:23:32.298Z,925.6414185
2023-01-18T01:24:33.139Z,925.6088257
2023-01-18T01:25:33.974Z,925.6358032
2023-01-18T01:26:34.830Z,925.6623535
2023-01-18T01:27:36.405Z,925.6895142
2023-01-18T01:28:37.270Z,925.6843872
2023-01-18T01:30:08.502Z,925.6950073
2023-01-18T01:31:09.506Z,925.6923218
2023-01-18T01:32:11.323Z,925.7860718
2023-01-18T01:33:12.237Z,925.8027344
2023-01-18T01:34:13.696Z,925.7627563
2023-01-18T01:35:15.279Z,925.7921753
2023-01-18T01:36:16.112Z,925.8273315
2023-01-18T01:37:17.021Z,925.8364258
2023-01-18T01:38:17.949Z,925.8123169
2023-01-18T01:39:18.865Z,925.8123169
2023-01-18T01:40:20.298Z,925.7948608
2023-01-18T01:41:21.171Z,925.8433838
2023-01-18T01:42:22.138Z,925.8970947
2023-01-18T01:43:23.019Z,925.8792114
2023-01-18T01:44:24.771Z,925.9159546
2023-01-18T01:45:25.648Z,925.9313354
2023-01-18T01:46:26.493Z,925.9543457
2023-01-18T01:47:27.723Z,925.9799805
2023-01-18T01:48:28.585Z,925.998291
2023-01-18T01:49:29.495Z,925.9989014
2023-01-18T01:50:30.319Z,926.0164795
2023-01-18T01:51:31.148Z,925.9940796
2023-01-18T01:52:32.118Z,926.0523682
2023-01-18T01:53:33.011Z,926.1034546
2023-01-18T01:54:34.751Z,926.1003418
2023-01-18T01:55:35.588Z,926.1159668
2023-01-18T01:56:36.395Z,926.1520996
2023-01-18T01:57:37.745Z,926.2023315
2023-01-18T01:59:09.124Z,926.2285767
2023-01-18T02:00:09.999Z,926.180603
2023-01-18T02:01:10.901Z,926.1854858
2023-01-18T02:02:11.881Z,926.1876831
2023-01-18T02:03:13.329Z,926.1835938
2023-01-18T02:04:14.811Z,926.2404785
2023-01-18T02:05:15.786Z,926.2340698
2023-01-18T02:06:16.613Z,926.2092285
2023-01-18T02:07:17.406Z,926.2746582
2023-01-18T02:08:18.231Z,926.2698975
2023-01-18T02:09:19.197Z,926.2906494
2023-01-18T02:10:20.800Z,926.2667236
2023-01-18T02:11:21.688Z,926.2490845
2023-01-18T02:12:22.616Z,926.2337646
2023-01-18T02:13:23.453Z,926.2321777
2023-01-18T02:14:25.258Z,926.2418213
2023-01-18T02:15:26.148Z,926.225769
2023-01-18T02:16:27.101Z,926.2242432
2023-01-18T02:17:28.018Z,926.2689209
2023-01-18T02:18:29.085Z,926.2459106
2023-01-18T02:19:30.003Z,926.2203369
2023-01-18T02:20:30.904Z,926.2603149
2023-01-18T02:21:31.861Z,926.2564087
2023-01-18T02:22:32.732Z,926.2178345
2023-01-18T02:23:33.570Z,926.2123413
2023-01-18T02:24:35.249Z,926.2219238
2023-01-18T02:25:36.151Z,926.190918
2023-01-18T02:26:37.563Z,926.2132568
2023-01-18T02:28:08.782Z,926.2349854
2023-01-18T02:29:09.630Z,926.241394
2023-01-18T02:30:10.648Z,926.2023315
2023-01-18T02:31:11.650Z,926.2461548
2023-01-18T02:32:12.486Z,926.2550659
2023-01-18T02:33:13.346Z,926.2310791
2023-01-18T02:34:14.775Z,926.3034668
2023-01-18T02:35:15.605Z,926.2374878
2023-01-18T02:36:16.494Z,926.3062744
2023-01-18T02:37:17.408Z,926.2518921
2023-01-18T02:38:18.379Z,926.2720337
2023-01-18T02:39:19.307Z,926.2784424
2023-01-18T02:40:20.081Z,926.2695313
2023-01-18T02:41:21.724Z,926.2752075
2023-01-18T02:42:22.602Z,926.2832642
2023-01-18T02:43:23.556Z,926.317749
2023-01-18T02:44:25.301Z,926.2952881
2023-01-18T02:45:26.684Z,926.2803345
2023-01-18T02:46:27.905Z,926.3139038
2023-01-18T02:47:28.883Z,926.28125
2023-01-18T02:48:29.895Z,926.3292236
2023-01-18T02:49:30.794Z,926.3019409
2023-01-18T02:50:31.611Z,926.3173218
2023-01-18T02:51:32.684Z,926.364624
2023-01-18T02:52:33.624Z,926.3237305
2023-01-18T02:53:34.676Z,926.321167
2023-01-18T02:54:36.321Z,926.3284912
2023-01-18T02:56:07.949Z,926.335144
2023-01-18T02:57:08.891Z,926.3005981
2023-01-18T02:58:09.802Z,926.3224487
2023-01-18T02:59:10.765Z,926.3269043
2023-01-18T03:00:11.693Z,926.3102417
2023-01-18T03:01:12.682Z,926.3448486
2023-01-18T03:02:13.443Z,926.3272095
2023-01-18T03:03:15.242Z,926.3677979
2023-01-18T03:04:16.888Z,926.3991699
2023-01-18T03:05:17.835Z,926.3965454
2023-01-18T03:06:18.729Z,926.3895264
2023-01-18T03:07:19.596Z,926.4007568
2023-01-18T03:08:20.478Z,926.3997803
2023-01-18T03:09:21.488Z,926.4279785
2023-01-18T03:10:22.445Z,926.416748
2023-01-18T03:11:24.278Z,926.4823608
2023-01-18T03:12:25.136Z,926.4263306
2023-01-18T03:13:26.071Z,926.4478149
2023-01-18T03:14:27.796Z,926.4589233
2023-01-18T03:15:29.012Z,926.4208374
2023-01-18T03:16:29.854Z,926.4634399
2023-01-18T03:17:30.715Z,926.4799805
2023-01-18T03:18:31.612Z,926.4713135
2023-01-18T03:19:32.596Z,926.5179443
2023-01-18T03:20:33.554Z,926.5093994
2023-01-18T03:21:34.544Z,926.5119019
2023-01-18T03:22:36.263Z,926.5335693
2023-01-18T03:24:07.744Z,926.5056763
2023-01-18T03:25:09.301Z,926.5284424
2023-01-18T03:26:10.237Z,926.5348511
2023-01-18T03:27:11.662Z,926.5651855
2023-01-18T03:28:12.857Z,926.5811768
2023-01-18T03:29:13.741Z,926.5603027
2023-01-18T03:30:14.652Z,926.5491943
2023-01-18T03:31:15.718Z,926.5300293
2023-01-18T03:32:17.312Z,926.5498657
2023-01-18T03:33:19.189Z,926.5613403
2023-01-18T03:34:20.044Z,926.6156006
2023-01-18T03:35:21.717Z,926.6134644
2023-01-18T03:36:22.753Z,926.6066895
2023-01-18T03:37:23.606Z,926.5898438
2023-01-18T03:38:24.510Z,926.6065063
2023-01-18T03:39:25.386Z,926.642334
2023-01-18T03:40:26.152Z,926.6652832
2023-01-18T03:41:27.094Z,926.600769
2023-01-18T03:42:27.772Z,926.6247559
2023-01-18T03:43:28.751Z,926.6472168
2023-01-18T03:44:30.318Z,926.6221924
2023-01-18T03:45:31.258Z,926.588623
2023-01-18T03:46:32.300Z,926.612915
2023-01-18T03:47:33.093Z,926.5985107
2023-01-18T03:48:33.989Z,926.6273193
2023-01-18T03:49:34.964Z,926.571228
2023-01-18T03:50:35.792Z,926.5923462
2023-01-18T03:52:07.310Z,926.5974121
2023-01-18T03:53:08.192Z,926.6309204
2023-01-18T03:54:09.162Z,926.6184082
2023-01-18T03:55:10.708Z,926.6209106
2023-01-18T03:56:11.557Z,926.6234131
2023-01-18T03:57:12.430Z,926.6350098
2023-01-18T03:58:13.343Z,926.6333008
2023-01-18T03:59:14.369Z,926.6758423
2023-01-18T04:00:15.721Z,926.664978
2023-01-18T04:01:16.766Z,926.6505737
2023-01-18T04:02:17.779Z,926.6428223
2023-01-18T04:03:19.289Z,926.668457
2023-01-18T04:04:20.249Z,926.6389771
2023-01-18T04:05:21.770Z,926.6798706
2023-01-18T04:06:22.670Z,926.6772461
2023-01-18T04:07:23.484Z,926.68396
2023-01-18T04:08:24.388Z,926.6977539
2023-01-18T04:09:25.305Z,926.6695557
2023-01-18T04:10:26.247Z,926.7201538
2023-01-18T04:11:27.778Z,926.6609497
2023-01-18T04:12:28.799Z,926.675293
2023-01-18T04:13:29.724Z,926.7025146
2023-01-18T04:14:30.569Z,926.673645
2023-01-18T04:15:32.303Z,926.7002563
2023-01-18T04:16:33.212Z,926.6820068
2023-01-18T04:17:34.188Z,926.6851807
2023-01-18T04:18:35.223Z,926.7546387
2023-01-18T04:20:06.898Z,926.7219238
2023-01-18T04:21:07.952Z,926.7507935
2023-01-18T04:22:09.792Z,926.7938843
2023-01-18T04:23:09.848Z,926.7820435
2023-01-18T04:24:10.961Z,926.7653198
2023-01-18T04:25:12.712Z,926.7701416
2023-01-18T04:26:13.672Z,926.8175049
2023-01-18T04:27:14.649Z,926.8328247
2023-01-18T04:28:15.696Z,926.8449707
2023-01-18T04:29:16.789Z,926.852356
2023-01-18T04:30:18.066Z,926.7906494
2023-01-18T04:31:18.938Z,926.8417358
2023-01-18T04:32:20.578Z,926.8488159
2023-01-18T04:33:21.707Z,926.8584595
2023-01-18T04:34:22.957Z,926.9000854
2023-01-18T04:35:24.668Z,926.883728
2023-01-18T04:36:25.421Z,926.9205322
2023-01-18T04:37:26.539Z,926.9141235
2023-01-18T04:38:27.479Z,926.9559937
2023-01-18T04:39:28.160Z,926.9784546
2023-01-18T04:40:29.211Z,927.0136108
2023-01-18T04:41:29.981Z,927.0008545
2023-01-18T04:42:30.844Z,927.0152588
2023-01-18T04:43:32.008Z,927.069397
2023-01-18T04:44:32.735Z,927.0974731
2023-01-18T04:45:34.076Z,927.1204834
2023-01-18T04:46:35.270Z,927.0949707
2023-01-18T04:48:06.556Z,927.1451416
2023-01-18T04:49:07.507Z,927.1260376
2023-01-18T04:50:08.404Z,927.1548462
2023-01-18T04:51:09.127Z,927.1628418
2023-01-18T04:52:09.866Z,927.1273193
2023-01-18T04:53:10.593Z,927.1401367
2023-01-18T04:54:11.548Z,927.1824341
2023-01-18T04:55:13.248Z,927.2277832
2023-01-18T04:56:13.965Z,927.2064209
2023-01-18T04:57:14.843Z,927.2141113
2023-01-18T04:58:15.541Z,927.1950073
2023-01-18T04:59:16.534Z,927.2173462
2023-01-18T05:00:17.301Z,927.2067871
2023-01-18T05:01:18.427Z,927.2313843
2023-01-18T05:02:19.090Z,927.197876
2023-01-18T05:03:19.732Z,927.257019
2023-01-18T05:04:20.621Z,927.2203369
2023-01-18T05:05:22.380Z,927.2160645
2023-01-18T05:06:23.483Z,927.2832642
2023-01-18T05:07:24.297Z,927.2416992
2023-01-18T05:08:25.201Z,927.2736816
2023-01-18T05:09:25.877Z,927.2337646
2023-01-18T05:10:26.707Z,927.274353
2023-01-18T05:11:27.959Z,927.3248291
2023-01-18T05:12:29.695Z,927.2625122
2023-01-18T05:13:30.488Z,927.2871704
2023-01-18T05:14:31.159Z,927.3009644
2023-01-18T05:15:32.751Z,927.3031006
2023-01-18T05:16:33.620Z,927.335144
2023-01-18T05:17:34.544Z,927.3509521
2023-01-18T05:19:05.921Z,927.3336182
2023-01-18T05:20:06.859Z,927.3192139
2023-01-18T05:21:07.567Z,927.3061523
2023-01-18T05:22:08.465Z,927.3356323
2023-01-18T05:23:09.379Z,927.3890381
2023-01-18T05:24:10.143Z,927.414978
2023-01-18T05:25:11.835Z,927.432373
2023-01-18T05:26:12.383Z,927.4499512
2023-01-18T05:27:13.181Z,927.5145264
2023-01-18T05:28:14.168Z,927.5040894
2023-01-18T05:29:14.990Z,927.4934082
2023-01-18T05:30:16.423Z,927.513916
2023-01-18T05:31:17.173Z,927.5507813
2023-01-18T05:32:18.202Z,927.5089111
2023-01-18T05:33:19.093Z,927.5404663
2023-01-18T05:34:20.019Z,927.6146851
2023-01-18T05:35:21.713Z,927.644165
2023-01-18T05:36:22.411Z,927.6575928
2023-01-18T05:37:23.266Z,927.6367188
2023-01-18T05:38:24.059Z,927.6991577
2023-01-18T05:39:24.800Z,927.6870117
2023-01-18T05:40:25.698Z,927.671936
2023-01-18T05:41:26.377Z,927.6546631
2023-01-18T05:42:28.222Z,927.7330322
2023-01-18T05:43:29.133Z,927.7420044
2023-01-18T05:44:30.037Z,927.762085
2023-01-18T05:45:31.801Z,927.7918701
2023-01-18T05:46:32.589Z,927.7873535
2023-01-18T05:47:33.520Z,927.8362427
2023-01-18T05:48:34.306Z,927.7937622
2023-01-18T05:50:05.884Z,927.7818604
2023-01-18T05:51:06.775Z,927.8029785
2023-01-18T05:52:07.795Z,927.8311157
2023-01-18T05:53:08.520Z,927.8347168
2023-01-18T05:54:09.435Z,927.8308105
2023-01-18T05:55:10.247Z,927.8339233
2023-01-18T05:56:11.845Z,927.8375244
2023-01-18T05:57:12.849Z,927.8671875
2023-01-18T05:58:13.882Z,927.8521729
2023-01-18T05:59:14.566Z,927.8665771
2023-01-18T06:00:15.632Z,927.8787231
2023-01-18T06:01:16.600Z,927.8950195
2023-01-18T06:02:17.425Z,927.8735962
2023-01-18T06:03:18.222Z,927.8984985
2023-01-18T06:04:19.628Z,927.9090576
2023-01-18T06:05:20.566Z,927.9017334
2023-01-18T06:06:22.170Z,927.9387207
2023-01-18T06:07:23.141Z,927.9474487
2023-01-18T06:08:24.233Z,927.9371948
2023-01-18T06:09:25.022Z,927.9777832
2023-01-18T06:10:25.830Z,928.0076294
2023-01-18T06:11:26.894Z,927.9986572
2023-01-18T06:12:28.655Z,928.0339355
2023-01-18T06:13:29.781Z,927.9989624
2023-01-18T06:14:30.638Z,927.9935913
2023-01-18T06:15:32.218Z,928.0786133
2023-01-18T06:16:33.060Z,928.0482788
2023-01-18T06:17:33.662Z,928.0917969
2023-01-18T06:19:05.275Z,928.1286011
2023-01-18T06:20:06.161Z,928.159668
2023-01-18T06:21:06.926Z,928.1707764
2023-01-18T06:22:07.827Z,928.2056274
2023-01-18T06:23:08.472Z,928.2265015
2023-01-18T06:24:09.194Z,928.2409668
2023-01-18T06:25:10.213Z,928.2757568
2023-01-18T06:26:11.778Z,928.373291
2023-01-18T06:27:12.517Z,928.345459
2023-01-18T06:28:13.400Z,928.3787231
2023-01-18T06:29:14.088Z,928.3585815
2023-01-18T06:30:14.896Z,928.3467407
2023-01-18T06:31:15.905Z,928.4315796
2023-01-18T06:32:16.589Z,928.4554443
2023-01-18T06:33:17.372Z,928.444397
2023-01-18T06:34:19.071Z,928.5281372
2023-01-18T06:35:19.732Z,928.552124
2023-01-18T06:36:21.193Z,928.5424805
2023-01-18T06:37:22.006Z,928.5444336
2023-01-18T06:38:22.800Z,928.617981
2023-01-18T06:39:23.559Z,928.6029663
2023-01-18T06:40:24.278Z,928.6343994
2023-01-18T06:41:25.024Z,928.6426392
2023-01-18T06:42:26.594Z,928.6596069
2023-01-18T06:43:27.785Z,928.6851807
2023-01-18T06:44:28.482Z,928.6654053
2023-01-18T06:45:29.765Z,928.7338257
2023-01-18T06:46:31.130Z,928.7312622
2023-01-18T06:47:32.040Z,928.7620239
2023-01-18T06:48:32.790Z,928.7863159
2023-01-18T06:49:33.475Z,928.7904663
2023-01-18T06:51:04.787Z,928.8154907
2023-01-18T06:52:05.650Z,928.8362427
2023-01-18T06:53:06.679Z,928.875
2023-01-18T06:54:07.368Z,928.8499756
2023-01-18T06:55:08.244Z,928.8605957
2023-01-18T06:56:09.689Z,928.9255371
2023-01-18T06:57:10.407Z,928.8951416
2023-01-18T06:58:11.604Z,928.9425049
2023-01-18T06:59:12.608Z,928.9658813
2023-01-18T07:00:13.291Z,928.9216919
2023-01-18T07:01:14.222Z,928.9696655
2023-01-18T07:02:14.896Z,928.9539795
2023-01-18T07:03:15.749Z,928.9953003
2023-01-18T07:04:16.638Z,929.0179443
2023-01-18T07:05:17.202Z,929.0490723
2023-01-18T07:06:18.819Z,929.0314331
2023-01-18T07:07:19.499Z,929.0714111
2023-01-18T07:08:21.304Z,929.0912476
2023-01-18T07:09:21.976Z,929.0932007
2023-01-18T07:10:22.698Z,929.1306152
2023-01-18T07:11:23.375Z,929.0970459
2023-01-18T07:12:24.055Z,929.1325684
2023-01-18T07:13:24.976Z,929.0964355
2023-01-18T07:14:25.802Z,929.1587524
2023-01-18T07:15:26.694Z,929.1278076
2023-01-18T07:16:28.113Z,929.1556396
2023-01-18T07:17:28.840Z,929.1398926
2023-01-18T07:18:29.997Z,929.1831055
2023-01-18T07:19:30.589Z,929.1889038
2023-01-18T07:20:31.790Z,929.2087402
2023-01-18T07:21:32.719Z,929.2039185
2023-01-18T07:22:33.966Z,929.2432861
2023-01-18T07:24:05.233Z,929.2859497
2023-01-18T07:25:06.108Z,929.3450928
2023-01-18T07:26:07.761Z,929.3262329
2023-01-18T07:27:08.472Z,929.3108521
2023-01-18T07:28:09.189Z,929.3684082
2023-01-18T07:29:09.920Z,929.3943481
2023-01-18T07:30:10.949Z,929.3534546
2023-01-18T07:31:11.852Z,929.3687744
2023-01-18T07:32:12.793Z,929.4049072
2023-01-18T07:33:14.128Z,929.4049072
2023-01-18T07:34:15.857Z,929.4202881
2023-01-18T07:35:16.842Z,929.3963013
2023-01-18T07:36:18.698Z,929.4035645
2023-01-18T07:37:19.402Z,929.4142456
2023-01-18T07:38:20.085Z,929.4447021
2023-01-18T07:39:20.930Z,929.4430542
2023-01-18T07:40:21.578Z,929.399231
2023-01-18T07:41:22.502Z,929.4440918
2023-01-18T07:42:23.193Z,929.446228
2023-01-18T07:43:24.624Z,929.4737549
2023-01-18T07:44:25.347Z,929.4568481
2023-01-18T07:45:26.172Z,929.512207
2023-01-18T07:46:27.765Z,929.5361938
2023-01-18T07:47:28.425Z,929.5
2023-01-18T07:48:29.390Z,929.539978
2023-01-18T07:49:30.229Z,929.5426025
2023-01-18T07:50:30.902Z,929.5570068
2023-01-18T07:51:31.695Z,929.5976563
2023-01-18T07:52:32.389Z,929.6129761
2023-01-18T07:53:33.697Z,929.6450195
2023-01-18T07:55:06.788Z,929.6593628
2023-01-18T07:56:06.692Z,929.6642456
2023-01-18T07:57:07.587Z,929.6791992
2023-01-18T07:58:09.159Z,929.7042236
2023-01-18T07:59:09.986Z,929.704834
2023-01-18T08:00:10.951Z,929.7759399
2023-01-18T08:01:12.081Z,929.7678833
2023-01-18T08:02:12.846Z,929.8208008
2023-01-18T08:03:13.626Z,929.8297119
2023-01-18T08:04:14.401Z,929.868042
2023-01-18T08:05:15.265Z,929.8565674
2023-01-18T08:06:16.758Z,929.9141235
2023-01-18T08:07:17.624Z,929.9035645
2023-01-18T08:08:19.180Z,929.9227905
2023-01-18T08:09:20.063Z,929.921814
2023-01-18T08:10:20.875Z,929.9156494
2023-01-18T08:11:21.722Z,929.9908447
2023-01-18T08:12:22.515Z,929.9962769
2023-01-18T08:13:23.355Z,930.0231323
2023-01-18T08:14:24.165Z,930.0596313
2023-01-18T08:15:25.034Z,930.032959
2023-01-18T08:16:26.802Z,930.0790405
2023-01-18T08:17:27.856Z,930.085083
2023-01-18T08:18:28.743Z,930.1660767
2023-01-18T08:19:29.603Z,930.1138916
2023-01-18T08:20:30.657Z,930.1759644
2023-01-18T08:21:31.525Z,930.2351074
2023-01-18T08:22:33.251Z,930.2193604
2023-01-18T08:24:04.529Z,930.2129517
2023-01-18T08:25:05.394Z,930.2567139
2023-01-18T08:26:06.245Z,930.2887573
2023-01-18T08:27:07.689Z,930.3300171
2023-01-18T08:28:08.548Z,930.3004761
2023-01-18T08:29:09.439Z,930.338623
2023-01-18T08:30:10.279Z,930.3855591
2023-01-18T08:31:11.290Z,930.4018555
2023-01-18T08:32:11.976Z,930.4329834
2023-01-18T08:33:12.816Z,930.4547119
2023-01-18T08:34:13.664Z,930.4451294
2023-01-18T08:35:15.155Z,930.4662476
2023-01-18T08:36:15.992Z,930.4902954
2023-01-18T08:37:17.649Z,930.5287476
2023-01-18T08:38:18.502Z,930.522644
2023-01-18T08:39:19.383Z,930.5281372
2023-01-18T08:40:20.198Z,930.5386963
2023-01-18T08:41:21.051Z,930.5748291
2023-01-18T08:42:21.916Z,930.5739136
2023-01-18T08:43:23.632Z,930.5681152
2023-01-18T08:44:24.494Z,930.5917358
2023-01-18T08:45:25.290Z,930.5922852
2023-01-18T08:46:26.169Z,930.6478271
2023-01-18T08:47:27.891Z,930.6939087
2023-01-18T08:48:28.842Z,930.6950684
2023-01-18T08:49:29.725Z,930.750061
2023-01-18T08:50:30.637Z,930.7668457
2023-01-18T08:51:31.608Z,930.802002
2023-01-18T08:52:32.882Z,930.8392334
2023-01-18T08:54:04.152Z,930.8442383
2023-01-18T08:55:05.042Z,930.8510742
2023-01-18T08:56:05.853Z,930.8660889
2023-01-18T08:57:07.729Z,930.9104614
2023-01-18T08:58:08.478Z,930.921875
2023-01-18T08:59:09.398Z,930.9490356
2023-01-18T09:00:10.225Z,930.9213867
2023-01-18T09:01:11.844Z,930.9594727
2023-01-18T09:02:12.572Z,931.0083618
2023-01-18T09:03:13.394Z,930.9785767
2023-01-18T09:04:14.179Z,931.0473633
2023-01-18T09:05:15.029Z,930.984375
2023-01-18T09:06:15.906Z,930.9945068
2023-01-18T09:07:17.748Z,931.039917
2023-01-18T09:08:18.566Z,931.0357666
2023-01-18T09:09:19.416Z,931.0245361
2023-01-18T09:10:20.294Z,931.0847168
2023-01-18T09:11:21.109Z,931.0661011
2023-01-18T09:12:21.986Z,931.107666
2023-01-18T09:13:23.644Z,931.1140747
2023-01-18T09:14:24.535Z,931.0917358
2023-01-18T09:15:25.507Z,931.1098633
2023-01-18T09:16:26.547Z,931.161377
2023-01-18T09:17:28.252Z,931.149292
2023-01-18T09:18:29.170Z,931.1640625
2023-01-18T09:19:30.026Z,931.2040405
2023-01-18T09:20:30.948Z,931.1603394
2023-01-18T09:21:32.784Z,931.244873
2023-01-18T09:23:04.271Z,931.2730713
2023-01-18T09:24:05.096Z,931.3412476
2023-01-18T09:25:06.144Z,931.3768921
2023-01-18T09:26:07.797Z,931.3735962
2023-01-18T09:27:09.273Z,931.3154907
2023-01-18T09:28:10.151Z,931.3459473
2023-01-18T09:29:10.972Z,931.397522
2023-01-18T09:30:11.903Z,931.4100952
2023-01-18T09:31:12.860Z,931.4089355
2023-01-18T09:32:14.360Z,931.4349976
2023-01-18T09:33:15.295Z,931.4710083
2023-01-18T09:34:19.745Z,931.4729614
2023-01-18T09:35:17.713Z,931.4932861
2023-01-18T09:36:18.599Z,931.4840698
2023-01-18T09:37:20.284Z,931.486084
2023-01-18T09:38:21.769Z,931.5339355
2023-01-18T09:39:22.703Z,931.5599365
2023-01-18T09:40:23.501Z,931.6051636
2023-01-18T09:41:24.436Z,931.6246948
2023-01-18T09:42:25.420Z,931.6395264
2023-01-18T09:43:26.300Z,931.6646118
2023-01-18T09:44:27.205Z,931.652832
2023-01-18T09:45:28.344Z,931.6928101
2023-01-18T09:46:29.447Z,931.670166
2023-01-18T09:47:31.310Z,931.6760254
2023-01-18T09:49:02.999Z,931.7097168
2023-01-18T09:50:03.932Z,931.7062378
2023-01-18T09:51:04.866Z,931.72229
2023-01-18T09:52:05.855Z,931.7546997
2023-01-18T09:53:06.877Z,931.8046875
2023-01-18T09:54:08.811Z,931.800293
2023-01-18T09:55:09.675Z,931.8198242
2023-01-18T09:56:10.666Z,931.8181152
2023-01-18T09:57:12.296Z,931.7999878
2023-01-18T09:58:13.279Z,931.8018799
2023-01-18T09:59:14.348Z,931.8071899
2023-01-18T10:00:15.085Z,931.8389893
2023-01-18T10:01:16.246Z,931.8707886
2023-01-18T10:02:17.204Z,931.9015503
2023-01-18T10:03:18.044Z,931.9515381
2023-01-18T10:04:19.123Z,931.9301758
2023-01-18T10:05:20.779Z,931.9763794
2023-01-18T10:06:21.645Z,931.9799805
2023-01-18T10:07:23.326Z,932.0150146
2023-01-18T10:08:24.334Z,932.0474854
2023-01-18T10:09:25.305Z,932.072876
2023-01-18T10:10:26.225Z,932.0630493
2023-01-18T10:11:27.241Z,932.0830688
2023-01-18T10:12:28.288Z,932.1186523
2023-01-18T10:13:29.771Z,932.1530762
2023-01-18T10:14:30.703Z,932.1640625
2023-01-18T10:15:32.014Z,932.1882935
2023-01-18T10:17:03.330Z,932.1809082
2023-01-18T10:18:04.715Z,932.1925659
2023-01-18T10:19:05.809Z,932.1420288
2023-01-18T10:20:06.856Z,932.1801758
2023-01-18T10:21:07.730Z,932.1931152
2023-01-18T10:22:08.573Z,932.2104492
2023-01-18T10:23:09.338Z,932.2224121
2023-01-18T10:24:11.263Z,932.2404785
2023-01-18T10:25:12.187Z,932.267395
2023-01-18T10:26:13.060Z,932.3100586
2023-01-18T10:27:14.776Z,932.3088379
2023-01-18T10:28:15.574Z,932.2835693
2023-01-18T10:29:16.429Z,932.3085938
2023-01-18T10:30:17.424Z,932.3319702
2023-01-18T10:31:18.442Z,932.3233032
2023-01-18T10:32:19.235Z,932.3269043
2023-01-18T10:33:20.110Z,932.3493652
2023-01-18T10:34:20.971Z,932.3503418
2023-01-18T10:35:22.846Z,932.3856201
2023-01-18T10:36:23.720Z,932.3955688
2023-01-18T10:37:25.328Z,932.4285889
2023-01-18T10:38:26.223Z,932.4157715
2023-01-18T10:39:27.036Z,932.4503784
2023-01-18T10:40:28.162Z,932.4684448
2023-01-18T10:41:29.176Z,932.4837646
2023-01-18T10:42:30.080Z,932.5290527
2023-01-18T10:43:31.964Z,932.5332031
2023-01-18T10:45:03.139Z,932.4995117
2023-01-18T10:46:04.154Z,932.5689087
2023-01-18T10:47:05.157Z,932.5634155
2023-01-18T10:48:06.737Z,932.5419312
2023-01-18T10:49:07.688Z,932.6304932
2023-01-18T10:50:08.660Z,932.6003418
2023-01-18T10:51:09.595Z,932.6359253
2023-01-18T10:52:10.602Z,932.6295166
2023-01-18T10:53:11.557Z,932.6802368
2023-01-18T10:54:12.494Z,932.6657715
2023-01-18T10:55:13.465Z,932.6699829
2023-01-18T10:56:14.393Z,932.7159424
2023-01-18T10:57:15.453Z,932.7366943
2023-01-18T10:58:17.320Z,932.7376709
2023-01-18T10:59:18.219Z,932.7457886
2023-01-18T11:00:19.256Z,932.756897
2023-01-18T11:01:20.289Z,932.7418823
2023-01-18T11:02:21.119Z,932.7302856
2023-01-18T11:03:22.022Z,932.7767944
2023-01-18T11:04:22.995Z,932.7639771
2023-01-18T11:05:24.778Z,932.7758789
2023-01-18T11:06:25.654Z,932.8245239
2023-01-18T11:07:26.750Z,932.8393555
2023-01-18T11:08:28.207Z,932.8342285
2023-01-18T11:09:29.321Z,932.8922119
2023-01-18T11:10:30.224Z,932.9152832
2023-01-18T11:11:31.546Z,932.9121094
2023-01-18T11:13:03.095Z,932.8982544